Time;durP1;ratioP1;P1;durP2;ratioP2;P2;SDS_P1;SDS_P2;PMS_P1;PMS_P2;Temp;Humidity;BMP_temperature;BMP_pressure;BME280_temperature;BME280_humidity;BME280_pressure;Samples;Min_cycle;Max_cycle;Signal;HPM_P1;HPM_P2
2022/10/31 00:02:22;;;;;;;57.73;37.13;;;;;;;10.02;82.75;101196.45;1654972;85;21713;-76
2022/10/31 00:05:08;;;;;;;54.67;36.80;;;;;;;9.99;82.80;101196.90;1643357;85;21112;-76
2022/10/31 00:07:53;;;;;;;69.53;39.30;;;;;;;9.98;82.87;101192.59;1637881;85;22157;-76
2022/10/31 00:10:43;;;;;;;59.13;39.05;;;;;;;9.96;82.82;101195.19;1642998;85;21038;-76
2022/10/31 00:13:28;;;;;;;56.88;36.28;;;;;;;9.93;82.80;101195.20;1664103;84;21111;-76
2022/10/31 00:16:21;;;;;;;55.73;36.70;;;;;;;9.91;82.82;101196.49;1641599;85;21053;-76
2022/10/31 00:19:07;;;;;;;60.73;38.58;;;;;;;9.90;82.83;101195.20;1650448;85;21028;-76
2022/10/31 00:21:52;;;;;;;57.78;36.73;;;;;;;9.89;82.76;101198.22;1570756;85;5001372;-76
2022/10/31 00:24:37;;;;;;;57.60;36.42;;;;;;;9.85;82.74;101197.84;1647341;85;21131;-76
2022/10/31 00:27:23;;;;;;;55.17;36.65;;;;;;;9.83;82.72;101191.82;1639132;85;21076;-76
2022/10/31 00:30:09;;;;;;;55.33;36.42;;;;;;;9.76;82.67;101191.41;1646048;85;21460;-76
2022/10/31 00:32:54;;;;;;;56.02;35.88;;;;;;;9.73;82.80;101192.72;1652845;85;21065;-76
2022/10/31 00:35:39;;;;;;;57.33;33.25;;;;;;;9.71;82.77;101191.00;1670275;85;21632;-76
2022/10/31 00:38:25;;;;;;;50.78;34.03;;;;;;;9.70;82.85;101187.99;1639727;85;21066;-76
2022/10/31 00:41:15;;;;;;;53.13;34.23;;;;;;;9.70;82.92;101186.70;1651909;85;21091;-76
2022/10/31 00:44:00;;;;;;;45.25;32.23;;;;;;;9.71;82.88;101185.41;1648773;85;21402;-76
2022/10/31 00:46:45;;;;;;;50.15;32.63;;;;;;;9.70;82.82;101187.56;1648822;85;21058;-76
2022/10/31 00:49:30;;;;;;;50.90;33.38;;;;;;;9.68;82.79;101200.91;1650653;85;21053;-76
2022/10/31 00:52:16;;;;;;;47.27;32.75;;;;;;;9.66;82.75;101198.77;1642159;85;21112;-76
2022/10/31 00:55:01;;;;;;;48.75;32.65;;;;;;;9.63;82.80;101198.34;1661089;85;21059;-76
2022/10/31 00:57:47;;;;;;;52.00;32.33;;;;;;;9.62;82.77;101199.20;1635305;85;21068;-76
2022/10/31 01:00:32;;;;;;;47.20;32.23;;;;;;;9.62;82.84;101195.77;1648539;85;21109;-76
2022/10/31 01:03:17;;;;;;;50.58;32.35;;;;;;;9.60;82.74;101193.61;1644576;85;21553;-76
2022/10/31 01:06:10;;;;;;;56.60;34.05;;;;;;;9.58;82.80;101191.03;1643913;85;21544;-76
2022/10/31 01:08:55;;;;;;;66.35;34.03;;;;;;;9.57;82.77;101196.20;1657676;85;21020;-76
2022/10/31 01:11:40;;;;;;;71.45;39.53;;;;;;;9.56;82.73;101199.65;1641532;85;21080;-77
2022/10/31 01:14:26;;;;;;;63.70;36.03;;;;;;;9.55;82.80;101201.80;1652179;84;21110;-76
2022/10/31 01:17:13;;;;;;;62.55;36.63;;;;;;;9.55;82.82;101206.97;1650238;84;21057;-76
2022/10/31 01:19:58;;;;;;;69.20;37.55;;;;;;;9.54;82.76;101210.41;1642312;85;22239;-76
2022/10/31 01:22:43;;;;;;;63.95;36.75;;;;;;;9.53;82.76;101214.71;1647906;85;21060;-76
2022/10/31 01:25:28;;;;;;;56.80;34.27;;;;;;;9.51;82.72;101211.27;1643903;85;21136;-76
2022/10/31 01:28:13;;;;;;;56.13;34.18;;;;;;;9.50;82.69;101215.15;1645573;83;21529;-77
2022/10/31 01:31:08;;;;;;;56.92;33.42;;;;;;;9.47;82.64;101208.27;1650025;85;21005;-77
2022/10/31 01:33:55;;;;;;;49.53;32.85;;;;;;;9.45;82.61;101211.28;1652023;84;21585;-77
2022/10/31 01:36:41;;;;;;;49.65;33.95;;;;;;;9.43;82.65;101212.15;1639311;85;21012;-77
2022/10/31 01:39:26;;;;;;;48.13;32.58;;;;;;;9.41;82.67;101213.88;1659503;85;21120;-76
2022/10/31 01:42:19;;;;;;;44.90;31.75;;;;;;;9.40;82.69;101219.90;1644764;84;21077;-77
2022/10/31 01:45:07;;;;;;;44.53;28.65;;;;;;;9.39;82.66;101220.33;1653390;85;21174;-76
2022/10/31 01:47:52;;;;;;;47.53;30.77;;;;;;;9.37;82.65;101216.03;1656641;85;21044;-77
2022/10/31 01:50:39;;;;;;;44.35;29.92;;;;;;;9.37;82.62;101216.03;1639926;86;21075;-77
2022/10/31 01:53:24;;;;;;;47.75;30.43;;;;;;;9.33;82.61;101213.05;1652813;86;21144;-76
2022/10/31 01:56:10;;;;;;;42.53;30.23;;;;;;;9.32;82.69;101216.50;1642835;86;21162;-76
2022/10/31 01:58:58;;;;;;;51.37;31.13;;;;;;;9.31;82.69;101215.64;1654239;85;21100;-76
2022/10/31 02:01:43;;;;;;;46.48;31.15;;;;;;;9.30;82.71;101221.66;1624162;86;21538;-77
2022/10/31 02:04:29;;;;;;;51.42;33.48;;;;;;;9.30;82.75;101213.92;1638403;85;21099;-77
2022/10/31 02:07:25;;;;;;;51.48;33.90;;;;;;;9.33;82.73;101214.34;1644510;86;21058;-77
2022/10/31 02:10:10;;;;;;;44.60;31.45;;;;;;;9.31;82.65;101207.03;1641419;86;21029;-77
2022/10/31 02:12:58;;;;;;;50.90;31.68;;;;;;;9.31;82.74;101209.62;1631413;86;21057;-77
2022/10/31 02:15:47;;;;;;;53.25;31.07;;;;;;;9.31;82.77;101210.48;1627614;87;21007;-76
2022/10/31 02:18:33;;;;;;;54.20;32.42;;;;;;;9.32;82.75;101208.75;1629080;87;21500;-76
2022/10/31 02:21:26;;;;;;;53.57;34.33;;;;;;;9.32;82.72;101206.17;1635877;87;21121;-76
2022/10/31 02:24:41;;;;;;;54.70;33.55;;;;;;;9.32;82.82;101207.47;1627292;87;21880;-76
2022/10/31 02:27:52;;;;;;;58.48;34.27;;;;;;;9.27;82.64;101204.89;1626026;87;21057;-77
2022/10/31 02:31:15;;;;;;;55.83;32.58;;;;;;;9.20;82.72;101202.75;1568939;90;21608;-77
2022/10/31 02:34:08;;;;;;;49.10;31.62;;;;;;;9.21;82.84;101209.63;1624814;86;21370;-77
2022/10/31 02:36:58;;;;;;;51.45;34.03;;;;;;;9.24;82.86;101210.05;1628259;86;21076;-76
2022/10/31 02:39:52;;;;;;;62.33;37.08;;;;;;;9.25;82.80;101213.06;1620821;86;21103;-76
2022/10/31 02:43:10;;;;;;;59.38;34.70;;;;;;;9.20;82.79;101206.62;1631546;87;22225;-76
2022/10/31 02:46:22;;;;;;;72.05;35.95;;;;;;;9.17;82.91;101208.34;1629107;87;21087;-76
2022/10/31 02:49:15;;;;;;;70.25;36.90;;;;;;;9.16;83.08;101211.34;1631140;85;21082;-77
2022/10/31 02:52:00;;;;;;;55.10;34.65;;;;;;;9.16;82.97;101216.51;1653910;84;21079;-76
2022/10/31 02:54:47;;;;;;;54.13;36.68;;;;;;;9.17;83.00;101219.52;1653847;85;21040;-76
2022/10/31 02:57:36;;;;;;;56.98;34.10;;;;;;;9.18;82.98;101223.82;1651087;85;21093;-77
2022/10/31 03:00:21;;;;;;;59.00;34.63;;;;;;;9.19;82.99;101226.83;1650963;85;21077;-76
2022/10/31 03:03:26;;;;;;;53.92;33.20;;;;;;;9.20;82.96;101229.84;1650419;85;21652;-76
2022/10/31 03:06:37;;;;;;;51.60;34.18;;;;;;;9.22;83.04;101222.95;1659537;84;21097;-76
2022/10/31 03:09:48;;;;;;;44.60;31.07;;;;;;;9.25;82.98;101221.66;1653349;85;21569;-76
2022/10/31 03:12:44;;;;;;;51.13;32.58;;;;;;;9.27;82.98;101216.50;1656185;85;21048;-76
2022/10/31 03:15:34;;;;;;;51.65;32.20;;;;;;;9.29;82.90;101227.25;1658683;85;21134;-76
2022/10/31 03:18:28;;;;;;;48.02;31.65;;;;;;;9.26;82.78;101226.39;1653408;85;21117;-76
2022/10/31 03:21:30;;;;;;;50.50;32.65;;;;;;;9.21;82.81;101234.14;1642511;85;22270;-76
2022/10/31 03:24:16;;;;;;;51.37;32.55;;;;;;;9.23;82.96;101235.00;1645315;85;21346;-76
2022/10/31 03:27:02;;;;;;;46.83;32.55;;;;;;;9.22;82.90;101238.44;1641356;85;21667;-76
2022/10/31 03:29:50;;;;;;;53.50;33.63;;;;;;;9.24;83.02;101234.14;1657847;85;21391;-76
2022/10/31 03:32:54;;;;;;;53.10;33.23;;;;;;;9.22;83.08;101233.28;1664865;84;20908;-76
2022/10/31 03:35:43;;;;;;;58.00;34.55;;;;;;;9.21;83.12;101234.14;1637353;85;21467;-76
2022/10/31 03:38:29;;;;;;;50.30;32.80;;;;;;;9.18;83.07;101234.14;1659293;84;20945;-76
2022/10/31 03:41:22;;;;;;;52.88;34.25;;;;;;;9.16;83.09;101232.42;1636701;85;20992;-76
2022/10/31 03:44:14;;;;;;;54.58;34.03;;;;;;;9.16;83.13;101231.13;1640453;85;20949;-76
2022/10/31 03:47:01;;;;;;;53.73;33.23;;;;;;;9.16;83.18;101233.28;1655869;85;20926;-76
2022/10/31 03:49:46;;;;;;;49.75;31.77;;;;;;;9.18;83.20;101233.28;1650003;85;21081;-77
2022/10/31 03:52:52;;;;;;;43.42;30.10;;;;;;;9.17;83.17;101230.27;1652830;84;21097;-77
2022/10/31 03:55:48;;;;;;;42.88;31.02;;;;;;;9.15;83.14;101224.25;1656186;84;21124;-76
2022/10/31 03:58:37;;;;;;;;;;;;;;;9.15;83.21;101227.69;1662926;84;21088;-76
2022/10/31 04:01:24;;;;;;;40.35;26.85;;;;;;;9.16;83.40;101226.83;1669182;84;20186;-76
2022/10/31 04:04:11;;;;;;;37.23;26.02;;;;;;;9.16;83.29;101222.95;1677691;84;21105;-76
2022/10/31 04:06:57;;;;;;;;;;;;;;;9.18;83.32;101225.11;1660509;84;21523;-76
2022/10/31 04:09:45;;;;;;;34.35;24.98;;;;;;;9.21;83.44;101234.56;1678299;83;25411;-76
2022/10/31 04:12:33;;;;;;;42.08;27.73;;;;;;;9.21;83.29;101234.14;1649737;84;21109;-76
2022/10/31 04:15:19;;;;;;;43.95;27.95;;;;;;;9.24;83.34;101235.42;1634553;85;21129;-76
2022/10/31 04:18:06;;;;;;;36.08;27.95;;;;;;;9.27;83.34;101235.86;1637201;85;21096;-76
2022/10/31 04:21:04;;;;;;;39.67;27.93;;;;;;;9.27;83.36;101242.31;1650643;85;21128;-76
2022/10/31 04:23:49;;;;;;;38.95;27.30;;;;;;;9.26;83.40;101244.45;1645728;85;21056;-76
2022/10/31 04:26:35;;;;;;;37.60;27.42;;;;;;;9.27;83.46;101241.88;1645283;85;20975;-76
2022/10/31 04:29:20;;;;;;;31.73;24.67;;;;;;;9.27;83.46;101243.17;1643942;85;21489;-76
2022/10/31 04:32:05;;;;;;;32.60;25.97;;;;;;;9.28;83.48;101247.47;1647524;85;21112;-76
2022/10/31 04:34:50;;;;;;;38.78;26.30;;;;;;;9.29;83.49;101245.31;1636862;84;21105;-76
2022/10/31 04:37:35;;;;;;;37.95;25.40;;;;;;;9.33;83.51;101246.17;1648974;85;21097;-76
2022/10/31 04:40:20;;;;;;;43.15;25.57;;;;;;;9.35;83.50;101252.62;1643439;84;21601;-76
2022/10/31 04:43:05;;;;;;;38.38;25.45;;;;;;;9.35;83.48;101256.50;1651855;85;21123;-76
2022/10/31 04:45:50;;;;;;;34.92;23.83;;;;;;;9.34;83.47;101254.34;1640517;85;21085;-76
2022/10/31 04:48:35;;;;;;;33.08;24.05;;;;;;;9.34;83.54;101251.77;1651976;85;21067;-76
2022/10/31 04:51:20;;;;;;;31.55;22.77;;;;;;;9.37;83.58;101249.15;1653406;85;21525;-76
2022/10/31 04:54:06;;;;;;;30.27;22.05;;;;;;;9.40;83.60;101256.03;1647469;85;21061;-76
2022/10/31 04:56:51;;;;;;;32.05;23.62;;;;;;;9.40;83.57;101256.03;1649972;84;21053;-76
2022/10/31 04:59:36;;;;;;;32.50;22.02;;;;;;;9.42;83.62;101256.46;1647858;85;21020;-77
2022/10/31 05:02:21;;;;;;;33.30;22.02;;;;;;;9.45;83.66;101260.77;1650799;85;21635;-77
2022/10/31 05:05:07;;;;;;;35.15;22.62;;;;;;;9.45;83.63;101257.75;1639970;85;21124;-77
2022/10/31 05:07:53;;;;;;;31.68;22.77;;;;;;;9.46;83.62;101271.52;1647225;85;20910;-77
2022/10/31 05:10:38;;;;;;;38.10;22.42;;;;;;;9.47;83.65;101264.20;1649145;84;21387;-77
2022/10/31 05:13:23;;;;;;;54.10;25.48;;;;;;;9.48;83.71;101262.91;1645553;85;21411;-77
2022/10/31 05:16:08;;;;;;;61.83;24.27;;;;;;;9.51;83.74;101265.92;1642519;85;20938;-77
2022/10/31 05:18:53;;;;;;;46.30;24.32;;;;;;;9.52;83.73;101267.20;1661358;85;20908;-76
2022/10/31 05:21:38;;;;;;;51.58;25.65;;;;;;;9.53;83.85;101269.36;1639966;85;20934;-76
2022/10/31 05:24:23;;;;;;;112.45;25.72;;;;;;;9.56;83.87;101266.77;1652937;85;20948;-76
2022/10/31 05:27:08;;;;;;;92.42;24.98;;;;;;;9.52;83.80;101267.64;1644143;84;20918;-76
2022/10/31 05:29:53;;;;;;;136.90;24.85;;;;;;;9.50;83.93;101269.36;1654606;85;21052;-76
2022/10/31 05:32:43;;;;;;;69.03;26.10;;;;;;;9.50;84.04;101266.78;1647045;85;21053;-76
2022/10/31 05:35:31;;;;;;;109.63;25.02;;;;;;;9.48;84.10;101266.78;1644757;85;21066;-76
2022/10/31 05:38:16;;;;;;;63.78;25.52;;;;;;;9.49;84.18;101263.34;1648824;85;21537;-76
2022/10/31 05:41:01;;;;;;;71.42;25.88;;;;;;;9.51;84.16;101273.66;1646394;84;21752;-76
2022/10/31 05:43:46;;;;;;;89.10;24.80;;;;;;;9.51;84.21;101267.21;1645684;85;21230;-76
2022/10/31 05:46:31;;;;;;;57.62;23.87;;;;;;;9.53;84.25;101266.77;1647858;85;21028;-76
2022/10/31 05:49:17;;;;;;;115.15;25.82;;;;;;;9.55;84.29;101268.50;1632929;85;20990;-76
2022/10/31 05:52:03;;;;;;;84.22;23.60;;;;;;;9.56;84.28;101268.06;1610036;87;21534;-76
2022/10/31 05:54:47;;;;;;;93.72;23.95;;;;;;;9.55;84.26;101272.80;1623177;86;21509;-77
2022/10/31 05:57:33;;;;;;;48.30;24.00;;;;;;;9.51;84.22;101269.36;1612373;86;21125;-76
2022/10/31 06:00:19;;;;;;;64.85;24.43;;;;;;;9.50;84.32;101270.22;1612799;86;21111;-76
2022/10/31 06:03:08;;;;;;;82.85;25.85;;;;;;;9.53;84.43;101275.38;1611924;87;21067;-76
2022/10/31 06:05:53;;;;;;;69.03;26.05;;;;;;;9.55;84.43;101276.67;1617712;87;21511;-76
2022/10/31 06:08:38;;;;;;;82.80;23.87;;;;;;;9.57;84.46;101273.23;1627268;86;21127;-76
2022/10/31 06:11:24;;;;;;;87.90;24.02;;;;;;;9.58;84.40;101274.95;1626597;86;20994;-76
2022/10/31 06:14:09;;;;;;;49.95;24.98;;;;;;;9.56;84.37;101280.97;1619365;87;21076;-76
2022/10/31 06:16:57;;;;;;;129.87;24.77;;;;;;;9.56;84.53;101274.09;1615684;87;21616;-76
2022/10/31 06:19:42;;;;;;;63.83;24.32;;;;;;;9.61;84.54;101274.08;1630601;86;22198;-76
2022/10/31 06:22:28;;;;;;;63.83;25.30;;;;;;;9.62;84.58;101282.26;1620904;86;21141;-76
2022/10/31 06:25:13;;;;;;;56.68;22.82;;;;;;;9.66;84.61;101285.27;1618544;86;21108;-76
2022/10/31 06:27:58;;;;;;;58.75;23.18;;;;;;;9.72;84.70;101288.27;1617174;87;21049;-76
2022/10/31 06:30:43;;;;;;;55.20;22.73;;;;;;;9.76;84.64;101296.44;1626377;86;21123;-77
2022/10/31 06:33:28;;;;;;;62.35;21.70;;;;;;;9.79;84.66;101299.88;1613867;87;21133;-77
2022/10/31 06:36:13;;;;;;;55.38;22.80;;;;;;;9.82;84.66;101299.02;1612891;86;21116;-77
2022/10/31 06:39:00;;;;;;;52.00;21.50;;;;;;;9.86;84.66;101310.63;1616314;86;21072;-77
2022/10/31 06:41:48;;;;;;;50.45;21.97;;;;;;;9.89;84.66;101310.59;1623392;87;21113;-77
2022/10/31 06:44:33;;;;;;;47.17;21.65;;;;;;;9.92;84.74;101314.46;1618572;86;21112;-77
2022/10/31 06:47:19;;;;;;;41.58;20.12;;;;;;;10.00;84.77;101318.32;1614844;87;21126;-77
2022/10/31 06:50:05;;;;;;;43.58;20.95;;;;;;;10.04;84.73;101321.33;1616283;86;21526;-77
2022/10/31 06:52:53;;;;;;;39.95;20.05;;;;;;;10.09;84.77;101328.64;1645448;84;21017;-77
2022/10/31 06:55:38;;;;;;;40.70;18.87;;;;;;;10.12;84.82;101327.77;1643615;85;21432;-77
2022/10/31 06:58:24;;;;;;;33.90;17.60;;;;;;;10.16;84.80;101329.05;1646151;85;21106;-78
2022/10/31 07:01:08;;;;;;;33.67;17.50;;;;;;;10.21;84.79;101334.23;1652163;85;21096;-78
2022/10/31 07:03:53;;;;;;;33.88;17.80;;;;;;;10.22;84.84;101338.11;1649094;85;21097;-77
2022/10/31 07:06:39;;;;;;;33.02;17.07;;;;;;;10.23;84.84;101335.95;1645487;85;21655;-77
2022/10/31 07:09:24;;;;;;;36.38;16.10;;;;;;;10.26;84.89;101346.72;1638505;85;21068;-77
2022/10/31 07:12:09;;;;;;;39.50;17.85;;;;;;;10.27;84.92;101357.48;1637199;85;21084;-77
2022/10/31 07:14:54;;;;;;;32.83;15.85;;;;;;;10.30;85.03;101363.08;1643182;85;21600;-77
2022/10/31 07:17:39;;;;;;;34.75;16.87;;;;;;;10.34;85.03;101366.08;1645414;85;21096;-77
2022/10/31 07:20:24;;;;;;;27.65;15.72;;;;;;;10.38;85.04;101363.91;1646088;85;21373;-77
2022/10/31 07:23:11;;;;;;;25.33;14.80;;;;;;;10.39;85.04;101363.91;1539946;84;10000635;-80
2022/10/31 07:25:59;;;;;;;30.40;13.88;;;;;;;10.45;85.18;101359.98;1601864;86;25364;-80
2022/10/31 07:28:47;;;;;;;23.55;14.58;;;;;;;10.51;85.18;101368.16;1609850;86;21019;-80
2022/10/31 07:31:32;;;;;;;23.87;12.88;;;;;;;10.56;85.20;101369.85;1616432;86;21090;-80
2022/10/31 07:34:17;;;;;;;25.43;13.62;;;;;;;10.64;85.20;101372.84;1661871;84;21484;-80
2022/10/31 07:37:02;;;;;;;21.73;12.55;;;;;;;10.71;85.24;101366.78;1656495;84;21106;-80
2022/10/31 07:39:47;;;;;;;19.00;12.05;;;;;;;10.73;85.16;101355.99;1655552;84;21067;-80
2022/10/31 07:42:41;;;;;;;18.27;11.95;;;;;;;10.77;85.24;101356.41;1660971;84;21091;-80
2022/10/31 07:45:26;;;;;;;17.37;11.60;;;;;;;10.83;85.29;101355.08;1659012;84;21060;-80
2022/10/31 07:48:11;;;;;;;19.10;11.20;;;;;;;10.87;85.29;101362.82;1642981;85;21064;-80
2022/10/31 07:50:56;;;;;;;16.45;10.80;;;;;;;10.94;85.38;101364.48;1648392;85;21463;-80
2022/10/31 07:53:41;;;;;;;14.07;10.35;;;;;;;10.97;85.33;101361.02;1644018;84;22163;-81
2022/10/31 07:56:27;;;;;;;14.60;10.72;;;;;;;11.03;85.40;101363.56;1641118;85;21108;-80
2022/10/31 07:59:13;;;;;;;12.07;9.25;;;;;;;11.08;85.45;101355.34;1642991;85;21104;-80
2022/10/31 08:01:58;;;;;;;;;;;;;;;11.15;85.50;101357.45;1653002;84;21049;-80
2022/10/31 08:04:43;;;;;;;14.75;8.48;;;;;;;11.17;85.58;101355.72;1638443;85;20205;-80
2022/10/31 08:07:28;;;;;;;20.65;9.90;;;;;;;11.22;85.55;101357.41;1639484;84;21116;-81
2022/10/31 08:10:14;;;;;;;17.67;8.83;;;;;;;11.26;85.57;101355.66;1639050;85;21120;-79
2022/10/31 08:13:05;;;;;;;22.30;8.78;;;;;;;11.35;85.63;101359.91;1641547;85;21073;-77
2022/10/31 08:15:51;;;;;;;21.75;9.13;;;;;;;11.43;85.66;101356.40;1630469;85;21093;-79
2022/10/31 08:18:37;;;;;;;;;;;;;;;11.52;85.61;101361.48;1646398;85;21112;-79
2022/10/31 08:21:22;;;;;;;15.08;8.83;;;;;;;11.57;85.71;101360.14;1649239;84;20213;-78
2022/10/31 08:24:08;;;;;;;23.10;9.65;;;;;;;11.63;85.65;101362.69;1638597;85;21111;-83
2022/10/31 08:26:53;;;;;;;20.20;9.70;;;;;;;11.70;85.64;101354.43;1652880;84;21092;-79
2022/10/31 08:29:39;;;;;;;21.50;8.93;;;;;;;11.77;85.66;101357.42;1641292;85;21911;-84
2022/10/31 08:32:24;;;;;;;35.75;9.23;;;;;;;11.84;85.71;101359.95;1648279;85;21496;-81
2022/10/31 08:35:09;;;;;;;23.02;9.28;;;;;;;11.90;85.62;101369.40;1642236;85;21080;-81
2022/10/31 08:37:55;;;;;;;22.82;10.32;;;;;;;11.95;85.66;101370.66;1638984;84;21130;-81
2022/10/31 08:40:40;;;;;;;24.55;10.45;;;;;;;12.01;85.74;101370.13;1643746;85;21176;-81
2022/10/31 08:43:25;;;;;;;40.33;10.38;;;;;;;12.06;85.70;101377.42;1638289;84;21112;-80
2022/10/31 08:46:10;;;;;;;33.25;10.35;;;;;;;12.14;85.75;101382.53;1585653;85;5001302;-81
2022/10/31 08:48:55;;;;;;;28.10;11.43;;;;;;;12.16;85.68;101382.94;1642591;85;21152;-81
2022/10/31 08:51:40;;;;;;;22.40;11.33;;;;;;;12.21;85.70;101385.48;1631738;85;21092;-81
2022/10/31 08:54:25;;;;;;;19.32;11.70;;;;;;;12.21;85.74;101391.96;1624453;87;21057;-81
2022/10/31 08:57:10;;;;;;;22.00;13.00;;;;;;;12.29;85.86;101391.89;1619773;87;21109;-81
2022/10/31 08:59:56;;;;;;;31.05;14.15;;;;;;;12.34;85.83;101394.85;1615995;86;21629;-81
2022/10/31 09:02:41;;;;;;;23.22;15.35;;;;;;;12.37;85.81;101396.12;1620884;86;21096;-81
2022/10/31 09:05:27;;;;;;;27.85;14.20;;;;;;;12.40;85.86;101396.08;1617060;86;21126;-81
2022/10/31 09:08:13;;;;;;;44.07;12.77;;;;;;;12.46;85.92;101399.91;1625141;86;21105;-81
2022/10/31 09:10:58;;;;;;;25.43;13.48;;;;;;;12.53;85.90;101401.97;1618794;86;21620;-81
2022/10/31 09:13:43;;;;;;;24.10;12.68;;;;;;;12.56;85.90;101401.48;1613158;86;21133;-82
2022/10/31 09:16:28;;;;;;;28.15;12.55;;;;;;;12.62;85.91;101406.19;1615765;86;21176;-81
2022/10/31 09:19:13;;;;;;;37.05;12.40;;;;;;;12.68;85.98;101402.23;1619806;86;21085;-80
2022/10/31 09:21:58;;;;;;;23.60;12.85;;;;;;;12.72;85.91;101402.61;1615063;87;21081;-82
2022/10/31 09:24:43;;;;;;;36.90;13.85;;;;;;;12.75;85.99;101403.43;1616109;86;21117;-81
2022/10/31 09:27:28;;;;;;;19.40;13.38;;;;;;;12.82;86.00;101401.19;1620846;86;21187;-82
2022/10/31 09:30:13;;;;;;;31.05;13.83;;;;;;;12.84;85.93;101398.56;1612619;86;21125;-80
2022/10/31 09:33:09;;;;;;;40.55;13.10;;;;;;;12.88;86.02;101397.21;1622803;86;21169;-80
2022/10/31 09:35:53;;;;;;;26.75;14.28;;;;;;;12.95;86.00;101391.94;1621238;87;21151;-83
2022/10/31 09:38:38;;;;;;;36.93;14.18;;;;;;;12.92;86.00;101399.33;1612777;87;21099;-82
2022/10/31 09:41:40;;;;;;;29.98;15.32;;;;;;;12.97;86.09;101406.62;1611009;86;21486;-80
2022/10/31 09:44:59;;;;;;;36.35;14.30;;;;;;;13.03;86.15;101402.61;1617432;87;21048;-80
2022/10/31 09:48:07;;;;;;;28.70;15.03;;;;;;;13.09;86.07;101401.67;1631369;87;21093;-80
2022/10/31 09:51:00;;;;;;;33.00;15.18;;;;;;;13.14;86.13;101404.62;1621473;86;21125;-80
2022/10/31 09:54:18;;;;;;;32.25;16.07;;;;;;;13.20;86.12;101409.77;1632495;85;21049;-80
2022/10/31 09:57:04;;;;;;;26.35;15.98;;;;;;;13.25;86.17;101412.30;1639728;85;21119;-80
2022/10/31 09:59:50;;;;;;;50.00;16.67;;;;;;;13.33;86.14;101408.30;1646685;85;21093;-81
2022/10/31 10:02:52;;;;;;;28.60;16.05;;;;;;;13.32;86.05;101404.84;1647638;85;21061;-81
2022/10/31 10:06:03;;;;;;;34.70;17.62;;;;;;;13.32;86.10;101412.63;1637379;85;21099;-81
2022/10/31 10:08:49;;;;;;;43.23;17.00;;;;;;;13.37;86.20;101412.13;1643095;85;21530;-81
2022/10/31 10:12:02;;;;;;;39.50;18.35;;;;;;;13.45;86.22;101408.11;1646384;85;21041;-80
2022/10/31 10:15:35;;;;;;;25.50;19.55;;;;;;;13.47;86.19;101406.35;1644183;85;21098;-80
2022/10/31 10:18:43;;;;;;;39.65;22.00;;;;;;;13.49;86.21;101409.78;1642750;85;21116;-80
2022/10/31 10:22:07;;;;;;;31.65;21.68;;;;;;;13.57;86.24;101413.09;1641575;85;21088;-80
2022/10/31 10:25:30;;;;;;;30.30;21.37;;;;;;;13.62;86.22;101413.02;1647040;85;21089;-80
2022/10/31 10:28:24;;;;;;;27.90;21.07;;;;;;;13.68;86.24;101414.22;1641294;85;21072;-80
2022/10/31 10:31:16;;;;;;;26.10;19.75;;;;;;;13.70;86.18;101417.22;1637946;85;21001;-81
2022/10/31 10:34:10;;;;;;;26.85;20.57;;;;;;;13.71;86.17;101417.63;1645717;84;21041;-80
2022/10/31 10:37:03;;;;;;;35.43;21.45;;;;;;;13.76;86.30;101415.82;1645033;84;21148;-80
2022/10/31 10:39:53;;;;;;;29.42;21.75;;;;;;;13.81;86.26;101412.70;1646088;85;21592;-80
2022/10/31 10:49:12;;;;;;;35.65;24.02;;;;;;;13.98;86.30;101409.83;1643976;85;21623;-81
2022/10/31 10:52:30;;;;;;;34.23;23.38;;;;;;;14.01;86.23;101403.72;1639795;85;22382;-80
2022/10/31 10:55:32;;;;;;;32.42;24.82;;;;;;;14.04;86.24;101400.58;1645156;85;21077;-80
2022/10/31 10:58:17;;;;;;;34.73;24.77;;;;;;;14.10;86.25;101400.92;1639729;85;21049;-80
2022/10/31 11:01:13;;;;;;;40.70;26.00;;;;;;;14.16;86.29;101402.11;1638312;85;21588;-80
2022/10/31 11:03:58;;;;;;;;;;;;;;;14.21;86.28;101396.37;1646106;84;21088;-80
2022/10/31 11:06:43;;;;;;;35.75;26.77;;;;;;;14.22;86.15;101396.80;1639983;85;20195;-81
2022/10/31 11:09:29;;;;;;;39.33;27.17;;;;;;;14.22;86.14;101392.45;1642023;85;21895;-81
2022/10/31 11:12:29;;;;;;;38.13;26.43;;;;;;;14.27;86.30;101403.22;1643120;85;21057;-80
2022/10/31 11:15:23;;;;;;;38.58;26.82;;;;;;;14.29;86.24;101399.70;1638508;85;21140;-80
2022/10/31 11:18:14;;;;;;;40.48;28.25;;;;;;;14.31;86.30;101395.33;1639324;85;21125;-80
2022/10/31 11:21:02;;;;;;;42.95;27.58;;;;;;;14.32;86.28;101393.14;1647619;84;21016;-80
2022/10/31 11:23:47;;;;;;;49.03;28.05;;;;;;;14.34;86.25;101391.81;1649186;85;20958;-80
2022/10/31 11:26:35;;;;;;;42.17;27.02;;;;;;;14.33;86.17;101383.14;1650609;85;21443;-80
2022/10/31 11:29:24;;;;;;;40.15;28.05;;;;;;;14.32;86.18;101385.33;1642409;85;21383;-80
2022/10/31 11:32:20;;;;;;;39.48;27.22;;;;;;;14.34;86.27;101386.16;1654043;84;20969;-80
2022/10/31 11:35:09;;;;;;;45.12;29.80;;;;;;;14.38;86.32;101386.96;1650850;85;20934;-80
2022/10/31 11:37:58;;;;;;;44.45;30.55;;;;;;;14.41;86.34;101382.59;1637942;85;21053;-83
2022/10/31 11:41:02;;;;;;;46.73;29.23;;;;;;;14.46;86.32;101386.41;1649086;85;21022;-80
2022/10/31 11:43:57;;;;;;;47.10;29.75;;;;;;;14.48;86.32;101388.53;1645180;85;21085;-80
2022/10/31 11:46:50;;;;;;;43.08;29.05;;;;;;;14.48;86.24;101390.69;1648295;85;21140;-80
2022/10/31 11:49:50;;;;;;;39.88;29.23;;;;;;;14.50;86.27;101396.72;1642271;84;21164;-82
2022/10/31 11:52:39;;;;;;;48.00;31.48;;;;;;;14.53;86.29;101391.91;1653737;85;21726;-79
2022/10/31 11:55:37;;;;;;;53.63;32.13;;;;;;;14.52;86.28;101387.58;1644817;85;21085;-79
2022/10/31 11:58:25;;;;;;;47.90;31.65;;;;;;;14.52;86.29;101387.14;1646254;85;21769;-78
2022/10/31 12:01:29;;;;;;;50.78;32.10;;;;;;;14.54;86.34;101387.97;1641684;85;21068;-79
2022/10/31 12:04:16;;;;;;;53.78;37.08;;;;;;;14.58;86.38;101390.03;1613969;86;36597;-79
2022/10/31 12:07:01;;;;;;;51.58;34.10;;;;;;;14.68;86.42;101392.86;1646120;85;21124;-79
2022/10/31 12:09:46;;;;;;;50.03;34.10;;;;;;;14.71;86.29;101381.09;1644431;85;21084;-79
2022/10/31 12:13:00;;;;;;;50.52;31.97;;;;;;;14.76;86.35;101380.99;1646808;85;21081;-79
2022/10/31 12:15:54;;;;;;;44.58;30.72;;;;;;;14.78;86.32;101376.17;1645208;85;21073;-79
2022/10/31 12:18:47;;;;;;;49.65;32.85;;;;;;;14.81;86.34;101376.10;1636368;85;21120;-79
2022/10/31 12:22:15;;;;;;;45.43;30.72;;;;;;;14.84;86.33;101379.95;1640404;85;21168;-79
2022/10/31 12:25:26;;;;;;;45.28;29.90;;;;;;;14.86;86.27;101385.13;1638676;85;21025;-79
2022/10/31 12:28:25;;;;;;;46.10;30.50;;;;;;;14.88;86.31;101385.94;1637063;85;21005;-79
2022/10/31 12:31:31;;;;;;;49.42;31.37;;;;;;;14.93;86.35;101387.15;1645028;85;21124;-79
2022/10/31 12:34:30;;;;;;;48.98;32.80;;;;;;;14.94;86.33;101378.00;1638680;85;21148;-79
2022/10/31 12:37:46;;;;;;;47.90;31.75;;;;;;;14.95;86.24;101369.74;1626452;85;21111;-79
2022/10/31 12:40:57;;;;;;;46.63;29.92;;;;;;;14.96;86.30;101374.92;1648009;85;20996;-79
2022/10/31 12:43:59;;;;;;;45.23;28.02;;;;;;;14.98;86.34;101369.23;1650214;85;21656;-79
2022/10/31 12:47:06;;;;;;;45.30;30.05;;;;;;;15.02;86.38;101368.72;1639995;84;21113;-79
2022/10/31 12:50:21;;;;;;;44.33;30.32;;;;;;;14.99;86.32;101370.95;1638368;85;22315;-79
2022/10/31 12:53:32;;;;;;;41.83;28.62;;;;;;;15.00;86.32;101371.36;1643634;85;21807;-79
2022/10/31 12:56:40;;;;;;;48.48;29.90;;;;;;;15.01;86.32;101365.26;1643404;85;20962;-79
2022/10/31 12:59:39;;;;;;;39.92;27.95;;;;;;;15.01;86.37;101365.26;1640583;84;20961;-79
2022/10/31 13:02:44;;;;;;;41.65;28.38;;;;;;;15.00;86.30;101363.55;1649233;85;20966;-79
2022/10/31 13:05:43;;;;;;;45.43;29.40;;;;;;;14.98;86.33;101361.42;1645820;84;20966;-79
2022/10/31 13:08:54;;;;;;;35.65;27.70;;;;;;;14.97;86.24;101361.45;1642752;85;20950;-79